Briefing drone pour Chazelles-sur-lyon

Rechercher une autre localisation

Conditions de vol :


Nous sommes le : Mardi 02 mars 2021
Il est 07:28 UTC (08:28 LT)

Lever de soleil : 05:51 UTC (06:51 LT)
Coucher de soleil : 17:57 UTC (18:57 LT)

Météo

L'essentiel des conditions de vol

VIGILANCE MÉTÉO FRANCE - Loire (42)
Pas de vigilances particulieres
CARTE TEMSI
CARTES DES FRONTS
METAR de LFMH
LFMH 020700Z AUTO 16007KT CAVOK 03/M00 Q1029

Date d'émission: 02/03/2021
Heure d'émission: 07:00 UTC
Vent: 160° pour 7 KT (13 km/h)
Visibilité horizontale: > 10 km
Plafond : Plafond et visibilité OK (CAVOK)
Température: 3 °C
Point de rosée: 0 °C
Humidité: 81%
Pression (QNH): 1029 hPa
TAF de LFMH
LFMH 020500Z 0206/0306 16005KT CAVOK

Conditions prévues :

Heure d'émission : Bulletin éffectué le 02 à 06:00 UTC
Prévision : Valide du 02 a 06:00 UTC au 03 a 06:00 UTC
Vent : 160° pour 5 KT (9 km/h)
Visibilité : > 10 km
WEBCAM POUR CHAZELLES-SUR-LYON

Réglementation

Voler en sécurité

CARTES AERONAUTIQUE 1/500.000
CARTES VAC (LFMH)
SUP AIP




Chargement des AIP...
NOTAM (CHAZELLES-SUR-LYON + Terrain à proximité / FIR )




Chargement des NOTAMS...
CONTACT PREFECTURE 42


Avertissement : Les données mises à disposition sont indicatives. Oxygène Drone ne pourra être tenu responsable de dégâts causés aux biens et aux personnes.